sensor_id;sensor_type;location;lat;lon;timestamp;temperature;humidity
49855;DHT22;35752;52.164;21.244;2022-07-06T00:01:22;16.70;99.90
49855;DHT22;35752;52.164;21.244;2022-07-06T00:03:47;16.70;99.90
49855;DHT22;35752;52.164;21.244;2022-07-06T00:06:13;16.70;99.90
49855;DHT22;35752;52.164;21.244;2022-07-06T00:08:39;16.70;99.90
49855;DHT22;35752;52.164;21.244;2022-07-06T00:11:05;16.70;99.90
49855;DHT22;35752;52.164;21.244;2022-07-06T00:13:31;16.70;99.90
49855;DHT22;35752;52.164;21.244;2022-07-06T00:15:57;16.70;99.90
49855;DHT22;35752;52.164;21.244;2022-07-06T00:18:23;16.70;99.90
49855;DHT22;35752;52.164;21.244;2022-07-06T00:20:49;16.70;99.90
49855;DHT22;35752;52.164;21.244;2022-07-06T00:23:14;16.60;99.90
49855;DHT22;35752;52.164;21.244;2022-07-06T00:25:40;16.60;99.90
49855;DHT22;35752;52.164;21.244;2022-07-06T00:28:06;16.60;99.90
49855;DHT22;35752;52.164;21.244;2022-07-06T00:30:32;16.60;99.90
49855;DHT22;35752;52.164;21.244;2022-07-06T00:32:58;16.60;99.90
49855;DHT22;35752;52.164;21.244;2022-07-06T00:35:24;16.50;99.90
49855;DHT22;35752;52.164;21.244;2022-07-06T00:37:50;16.50;99.90
49855;DHT22;35752;52.164;21.244;2022-07-06T00:40:16;16.50;99.90
49855;DHT22;35752;52.164;21.244;2022-07-06T00:42:44;16.50;99.90
49855;DHT22;35752;52.164;21.244;2022-07-06T00:45:11;16.50;99.90
49855;DHT22;35752;52.164;21.244;2022-07-06T00:47:38;16.50;99.90
49855;DHT22;35752;52.164;21.244;2022-07-06T00:50:05;16.50;99.90
49855;DHT22;35752;52.164;21.244;2022-07-06T00:52:45;16.40;99.90
49855;DHT22;35752;52.164;21.244;2022-07-06T00:55:13;16.40;99.90
49855;DHT22;35752;52.164;21.244;2022-07-06T00:57:39;16.40;99.90
49855;DHT22;35752;52.164;21.244;2022-07-06T01:00:09;16.40;99.90
49855;DHT22;35752;52.164;21.244;2022-07-06T01:02:35;16.40;99.90
49855;DHT22;35752;52.164;21.244;2022-07-06T01:05:06;16.40;99.90
49855;DHT22;35752;52.164;21.244;2022-07-06T01:07:32;16.40;99.90
49855;DHT22;35752;52.164;21.244;2022-07-06T01:09:59;16.40;99.90
49855;DHT22;35752;52.164;21.244;2022-07-06T01:12:25;16.40;99.90
49855;DHT22;35752;52.164;21.244;2022-07-06T01:14:50;16.40;99.90
49855;DHT22;35752;52.164;21.244;2022-07-06T01:17:17;16.30;99.90
49855;DHT22;35752;52.164;21.244;2022-07-06T01:19:44;16.30;99.90
49855;DHT22;35752;52.164;21.244;2022-07-06T01:22:10;16.30;99.90
49855;DHT22;35752;52.164;21.244;2022-07-06T01:24:36;16.30;99.90
49855;DHT22;35752;52.164;21.244;2022-07-06T01:27:04;16.30;99.90
49855;DHT22;35752;52.164;21.244;2022-07-06T01:29:30;16.30;99.90
49855;DHT22;35752;52.164;21.244;2022-07-06T01:31:56;16.30;99.90
49855;DHT22;35752;52.164;21.244;2022-07-06T01:34:21;16.30;99.90
49855;DHT22;35752;52.164;21.244;2022-07-06T01:36:47;16.30;99.90
49855;DHT22;35752;52.164;21.244;2022-07-06T01:39:13;16.20;99.90
49855;DHT22;35752;52.164;21.244;2022-07-06T01:41:39;16.30;99.90
49855;DHT22;35752;52.164;21.244;2022-07-06T01:44:04;16.30;99.90
49855;DHT22;35752;52.164;21.244;2022-07-06T01:46:31;16.20;99.90
49855;DHT22;35752;52.164;21.244;2022-07-06T01:48:56;16.20;99.90
49855;DHT22;35752;52.164;21.244;2022-07-06T01:51:23;16.20;99.90
49855;DHT22;35752;52.164;21.244;2022-07-06T01:53:49;16.10;99.90
49855;DHT22;35752;52.164;21.244;2022-07-06T01:56:16;16.10;99.90
49855;DHT22;35752;52.164;21.244;2022-07-06T01:58:43;16.10;99.90
49855;DHT22;35752;52.164;21.244;2022-07-06T02:01:19;16.20;99.90
49855;DHT22;35752;52.164;21.244;2022-07-06T02:03:46;16.20;99.90
49855;DHT22;35752;52.164;21.244;2022-07-06T02:06:12;16.20;99.90
49855;DHT22;35752;52.164;21.244;2022-07-06T02:08:38;16.20;99.90
49855;DHT22;35752;52.164;21.244;2022-07-06T02:11:08;16.20;99.90
49855;DHT22;35752;52.164;21.244;2022-07-06T02:13:34;16.20;99.90
49855;DHT22;35752;52.164;21.244;2022-07-06T02:16:01;16.20;99.90
49855;DHT22;35752;52.164;21.244;2022-07-06T02:18:27;16.20;99.90
49855;DHT22;35752;52.164;21.244;2022-07-06T02:20:53;16.20;99.90
49855;DHT22;35752;52.164;21.244;2022-07-06T02:23:18;16.20;99.90
49855;DHT22;35752;52.164;21.244;2022-07-06T02:25:44;16.20;99.90
49855;DHT22;35752;52.164;21.244;2022-07-06T02:28:10;16.20;99.90
49855;DHT22;35752;52.164;21.244;2022-07-06T02:30:36;16.10;99.90
49855;DHT22;35752;52.164;21.244;2022-07-06T02:33:01;16.10;99.90
49855;DHT22;35752;52.164;21.244;2022-07-06T02:35:27;16.20;99.90
49855;DHT22;35752;52.164;21.244;2022-07-06T02:37:53;16.10;99.90
49855;DHT22;35752;52.164;21.244;2022-07-06T02:40:19;16.10;99.90
49855;DHT22;35752;52.164;21.244;2022-07-06T02:42:44;16.10;99.90
49855;DHT22;35752;52.164;21.244;2022-07-06T02:45:11;16.10;99.90
49855;DHT22;35752;52.164;21.244;2022-07-06T02:47:36;16.10;99.90
49855;DHT22;35752;52.164;21.244;2022-07-06T02:50:04;16.10;99.90
49855;DHT22;35752;52.164;21.244;2022-07-06T02:52:30;16.10;99.90
49855;DHT22;35752;52.164;21.244;2022-07-06T02:54:56;16.10;99.90
49855;DHT22;35752;52.164;21.244;2022-07-06T02:57:22;16.10;99.90
49855;DHT22;35752;52.164;21.244;2022-07-06T02:59:47;16.10;99.90
49855;DHT22;35752;52.164;21.244;2022-07-06T03:02:15;16.10;99.90
49855;DHT22;35752;52.164;21.244;2022-07-06T03:04:42;16.00;99.90
49855;DHT22;35752;52.164;21.244;2022-07-06T03:07:07;16.10;99.90
49855;DHT22;35752;52.164;21.244;2022-07-06T03:09:33;16.10;99.90
49855;DHT22;35752;52.164;21.244;2022-07-06T03:11:59;16.00;99.90
49855;DHT22;35752;52.164;21.244;2022-07-06T03:14:25;16.10;99.90
49855;DHT22;35752;52.164;21.244;2022-07-06T03:16:51;16.00;99.90
49855;DHT22;35752;52.164;21.244;2022-07-06T03:19:17;16.00;99.90
49855;DHT22;35752;52.164;21.244;2022-07-06T03:21:43;16.00;99.90
49855;DHT22;35752;52.164;21.244;2022-07-06T03:24:09;16.00;99.90
49855;DHT22;35752;52.164;21.244;2022-07-06T03:26:34;16.10;99.90
49855;DHT22;35752;52.164;21.244;2022-07-06T03:29:00;16.10;99.90
49855;DHT22;35752;52.164;21.244;2022-07-06T03:31:26;16.10;99.90
49855;DHT22;35752;52.164;21.244;2022-07-06T03:33:51;16.10;99.90
49855;DHT22;35752;52.164;21.244;2022-07-06T03:36:17;16.10;99.90
49855;DHT22;35752;52.164;21.244;2022-07-06T03:38:43;16.10;99.90
49855;DHT22;35752;52.164;21.244;2022-07-06T03:41:09;16.10;99.90
49855;DHT22;35752;52.164;21.244;2022-07-06T03:43:34;16.10;99.90
49855;DHT22;35752;52.164;21.244;2022-07-06T03:46:00;16.10;99.90
49855;DHT22;35752;52.164;21.244;2022-07-06T03:48:26;16.10;99.90
49855;DHT22;35752;52.164;21.244;2022-07-06T03:50:51;16.10;99.90
49855;DHT22;35752;52.164;21.244;2022-07-06T03:53:17;16.10;99.90
49855;DHT22;35752;52.164;21.244;2022-07-06T03:55:43;16.20;99.90
49855;DHT22;35752;52.164;21.244;2022-07-06T03:58:08;16.10;99.90
49855;DHT22;35752;52.164;21.244;2022-07-06T04:00:34;16.10;99.90
49855;DHT22;35752;52.164;21.244;2022-07-06T04:03:00;16.10;99.90
49855;DHT22;35752;52.164;21.244;2022-07-06T04:05:26;16.10;99.90
49855;DHT22;35752;52.164;21.244;2022-07-06T04:07:52;16.10;99.90
49855;DHT22;35752;52.164;21.244;2022-07-06T04:10:18;16.10;99.90
49855;DHT22;35752;52.164;21.244;2022-07-06T04:12:44;16.20;99.90
49855;DHT22;35752;52.164;21.244;2022-07-06T04:15:11;16.30;99.90
49855;DHT22;35752;52.164;21.244;2022-07-06T04:17:38;16.30;99.90
49855;DHT22;35752;52.164;21.244;2022-07-06T04:20:20;16.30;99.90
49855;DHT22;35752;52.164;21.244;2022-07-06T04:22:46;16.30;99.90
49855;DHT22;35752;52.164;21.244;2022-07-06T04:25:11;16.30;99.90
49855;DHT22;35752;52.164;21.244;2022-07-06T04:27:37;16.30;99.90
49855;DHT22;35752;52.164;21.244;2022-07-06T04:30:04;16.30;99.90
49855;DHT22;35752;52.164;21.244;2022-07-06T04:32:30;16.30;99.90
49855;DHT22;35752;52.164;21.244;2022-07-06T04:34:55;16.30;99.90
49855;DHT22;35752;52.164;21.244;2022-07-06T04:37:21;16.30;99.90
49855;DHT22;35752;52.164;21.244;2022-07-06T04:39:47;16.30;99.90
49855;DHT22;35752;52.164;21.244;2022-07-06T04:42:13;16.40;99.90
49855;DHT22;35752;52.164;21.244;2022-07-06T04:44:39;16.40;99.90
49855;DHT22;35752;52.164;21.244;2022-07-06T04:47:04;16.40;99.90
49855;DHT22;35752;52.164;21.244;2022-07-06T04:49:30;16.30;99.90
49855;DHT22;35752;52.164;21.244;2022-07-06T04:51:56;16.40;99.90
49855;DHT22;35752;52.164;21.244;2022-07-06T04:54:22;16.40;99.90
49855;DHT22;35752;52.164;21.244;2022-07-06T04:56:48;16.40;99.90
49855;DHT22;35752;52.164;21.244;2022-07-06T04:59:14;16.40;99.90
49855;DHT22;35752;52.164;21.244;2022-07-06T05:01:40;16.50;99.90
49855;DHT22;35752;52.164;21.244;2022-07-06T05:04:06;16.40;99.90
49855;DHT22;35752;52.164;21.244;2022-07-06T05:06:32;16.50;99.90
49855;DHT22;35752;52.164;21.244;2022-07-06T05:08:58;16.60;99.90
49855;DHT22;35752;52.164;21.244;2022-07-06T05:11:26;16.60;99.90
49855;DHT22;35752;52.164;21.244;2022-07-06T05:13:51;16.60;99.90
49855;DHT22;35752;52.164;21.244;2022-07-06T05:16:17;16.60;99.90
49855;DHT22;35752;52.164;21.244;2022-07-06T05:18:43;16.60;99.90
49855;DHT22;35752;52.164;21.244;2022-07-06T05:21:09;16.60;99.90
49855;DHT22;35752;52.164;21.244;2022-07-06T05:23:34;16.50;99.90
49855;DHT22;35752;52.164;21.244;2022-07-06T05:26:00;16.50;99.90
49855;DHT22;35752;52.164;21.244;2022-07-06T05:28:26;16.50;99.90
49855;DHT22;35752;52.164;21.244;2022-07-06T05:30:51;16.50;99.90
49855;DHT22;35752;52.164;21.244;2022-07-06T05:33:17;16.40;99.90
49855;DHT22;35752;52.164;21.244;2022-07-06T05:35:43;16.40;99.90
49855;DHT22;35752;52.164;21.244;2022-07-06T05:38:08;16.40;99.90
49855;DHT22;35752;52.164;21.244;2022-07-06T05:40:34;16.40;99.90
49855;DHT22;35752;52.164;21.244;2022-07-06T05:43:00;16.30;99.90
49855;DHT22;35752;52.164;21.244;2022-07-06T05:45:26;16.40;99.90
49855;DHT22;35752;52.164;21.244;2022-07-06T05:47:51;16.40;99.90
49855;DHT22;35752;52.164;21.244;2022-07-06T05:50:35;16.40;99.90
49855;DHT22;35752;52.164;21.244;2022-07-06T05:53:04;16.50;99.90
49855;DHT22;35752;52.164;21.244;2022-07-06T05:55:30;16.50;99.90
49855;DHT22;35752;52.164;21.244;2022-07-06T05:57:56;16.60;99.90
49855;DHT22;35752;52.164;21.244;2022-07-06T06:00:26;16.60;99.90
49855;DHT22;35752;52.164;21.244;2022-07-06T06:02:52;16.70;99.90
49855;DHT22;35752;52.164;21.244;2022-07-06T06:05:19;16.80;99.90
49855;DHT22;35752;52.164;21.244;2022-07-06T06:07:45;16.80;99.90
49855;DHT22;35752;52.164;21.244;2022-07-06T06:10:15;16.70;99.90
49855;DHT22;35752;52.164;21.244;2022-07-06T06:12:41;16.80;99.90
49855;DHT22;35752;52.164;21.244;2022-07-06T06:15:08;16.70;99.90
49855;DHT22;35752;52.164;21.244;2022-07-06T06:17:35;16.80;99.90
49855;DHT22;35752;52.164;21.244;2022-07-06T06:20:03;16.90;99.90
49855;DHT22;35752;52.164;21.244;2022-07-06T06:22:29;16.90;99.90
49855;DHT22;35752;52.164;21.244;2022-07-06T06:24:55;17.00;99.90
49855;DHT22;35752;52.164;21.244;2022-07-06T06:27:21;17.00;99.90
49855;DHT22;35752;52.164;21.244;2022-07-06T06:29:46;17.00;99.90
49855;DHT22;35752;52.164;21.244;2022-07-06T06:32:13;17.00;99.90
49855;DHT22;35752;52.164;21.244;2022-07-06T06:34:40;16.90;99.90
49855;DHT22;35752;52.164;21.244;2022-07-06T06:37:06;17.00;99.90
49855;DHT22;35752;52.164;21.244;2022-07-06T06:39:31;17.00;99.90
49855;DHT22;35752;52.164;21.244;2022-07-06T06:41:58;17.00;99.90
49855;DHT22;35752;52.164;21.244;2022-07-06T06:44:23;17.00;99.90
49855;DHT22;35752;52.164;21.244;2022-07-06T06:46:50;17.10;99.90
49855;DHT22;35752;52.164;21.244;2022-07-06T06:49:17;17.10;99.90
49855;DHT22;35752;52.164;21.244;2022-07-06T06:51:44;17.20;99.90
49855;DHT22;35752;52.164;21.244;2022-07-06T06:54:09;17.20;99.90
49855;DHT22;35752;52.164;21.244;2022-07-06T06:56:35;17.30;99.90
49855;DHT22;35752;52.164;21.244;2022-07-06T06:59:01;17.30;99.90
49855;DHT22;35752;52.164;21.244;2022-07-06T07:01:27;17.40;99.90
49855;DHT22;35752;52.164;21.244;2022-07-06T07:03:54;17.40;99.90
49855;DHT22;35752;52.164;21.244;2022-07-06T07:06:20;17.50;99.90
49855;DHT22;35752;52.164;21.244;2022-07-06T07:08:46;17.60;99.90
49855;DHT22;35752;52.164;21.244;2022-07-06T07:11:12;17.70;99.90
49855;DHT22;35752;52.164;21.244;2022-07-06T07:13:38;17.80;99.90
49855;DHT22;35752;52.164;21.244;2022-07-06T07:16:04;17.80;99.90
49855;DHT22;35752;52.164;21.244;2022-07-06T07:18:30;17.90;99.90
49855;DHT22;35752;52.164;21.244;2022-07-06T07:20:56;18.00;99.90
49855;DHT22;35752;52.164;21.244;2022-07-06T07:23:22;18.10;99.90
49855;DHT22;35752;52.164;21.244;2022-07-06T07:25:47;18.30;99.90
49855;DHT22;35752;52.164;21.244;2022-07-06T07:28:13;18.30;99.90
49855;DHT22;35752;52.164;21.244;2022-07-06T07:30:38;18.40;99.90
49855;DHT22;35752;52.164;21.244;2022-07-06T07:33:04;18.60;99.90
49855;DHT22;35752;52.164;21.244;2022-07-06T07:35:30;18.90;99.90
49855;DHT22;35752;52.164;21.244;2022-07-06T07:37:55;19.20;99.90
49855;DHT22;35752;52.164;21.244;2022-07-06T07:40:21;19.30;99.90
49855;DHT22;35752;52.164;21.244;2022-07-06T07:42:47;19.40;99.90
49855;DHT22;35752;52.164;21.244;2022-07-06T07:45:13;19.70;99.90
49855;DHT22;35752;52.164;21.244;2022-07-06T07:47:39;19.90;99.90
49855;DHT22;35752;52.164;21.244;2022-07-06T07:50:05;19.80;99.90
49855;DHT22;35752;52.164;21.244;2022-07-06T07:52:31;19.90;99.90
49855;DHT22;35752;52.164;21.244;2022-07-06T07:54:57;20.00;99.90
49855;DHT22;35752;52.164;21.244;2022-07-06T07:57:23;19.80;99.90
49855;DHT22;35752;52.164;21.244;2022-07-06T07:59:49;19.70;99.90
49855;DHT22;35752;52.164;21.244;2022-07-06T08:02:15;19.60;99.90
49855;DHT22;35752;52.164;21.244;2022-07-06T08:04:41;19.50;99.90
49855;DHT22;35752;52.164;21.244;2022-07-06T08:07:07;19.20;99.90
49855;DHT22;35752;52.164;21.244;2022-07-06T08:09:33;19.20;99.90
49855;DHT22;35752;52.164;21.244;2022-07-06T08:11:59;19.10;99.90
49855;DHT22;35752;52.164;21.244;2022-07-06T08:14:25;19.30;99.90
49855;DHT22;35752;52.164;21.244;2022-07-06T08:16:51;19.50;99.90
49855;DHT22;35752;52.164;21.244;2022-07-06T08:19:17;19.70;99.90
49855;DHT22;35752;52.164;21.244;2022-07-06T08:21:43;20.00;99.90
49855;DHT22;35752;52.164;21.244;2022-07-06T08:24:09;20.10;99.90
49855;DHT22;35752;52.164;21.244;2022-07-06T08:26:35;20.00;99.90
49855;DHT22;35752;52.164;21.244;2022-07-06T08:29:01;20.00;99.90
49855;DHT22;35752;52.164;21.244;2022-07-06T08:31:27;20.00;99.90
49855;DHT22;35752;52.164;21.244;2022-07-06T08:33:53;20.00;99.90
49855;DHT22;35752;52.164;21.244;2022-07-06T08:36:20;20.00;99.90
49855;DHT22;35752;52.164;21.244;2022-07-06T08:38:46;20.00;99.90
49855;DHT22;35752;52.164;21.244;2022-07-06T08:41:14;20.00;99.90
49855;DHT22;35752;52.164;21.244;2022-07-06T08:43:40;20.00;99.90
49855;DHT22;35752;52.164;21.244;2022-07-06T08:46:07;19.90;99.90
49855;DHT22;35752;52.164;21.244;2022-07-06T08:48:36;19.90;99.90
49855;DHT22;35752;52.164;21.244;2022-07-06T08:51:04;19.90;99.90
49855;DHT22;35752;52.164;21.244;2022-07-06T08:53:30;20.20;99.90
49855;DHT22;35752;52.164;21.244;2022-07-06T08:55:55;20.50;99.90
49855;DHT22;35752;52.164;21.244;2022-07-06T08:58:25;20.50;99.90
49855;DHT22;35752;52.164;21.244;2022-07-06T09:00:56;20.50;99.90
49855;DHT22;35752;52.164;21.244;2022-07-06T09:03:23;20.60;99.90
49855;DHT22;35752;52.164;21.244;2022-07-06T09:05:50;20.40;99.90
49855;DHT22;35752;52.164;21.244;2022-07-06T09:08:18;20.40;99.90
49855;DHT22;35752;52.164;21.244;2022-07-06T09:10:44;20.40;99.90
49855;DHT22;35752;52.164;21.244;2022-07-06T09:13:10;20.50;99.90
49855;DHT22;35752;52.164;21.244;2022-07-06T09:15:37;20.60;99.90
49855;DHT22;35752;52.164;21.244;2022-07-06T09:18:06;20.80;99.90
49855;DHT22;35752;52.164;21.244;2022-07-06T09:20:32;21.00;99.90
49855;DHT22;35752;52.164;21.244;2022-07-06T09:23:00;21.10;99.90
49855;DHT22;35752;52.164;21.244;2022-07-06T09:25:27;20.90;99.90
49855;DHT22;35752;52.164;21.244;2022-07-06T09:27:53;21.00;99.90
49855;DHT22;35752;52.164;21.244;2022-07-06T09:30:21;21.10;99.90
49855;DHT22;35752;52.164;21.244;2022-07-06T09:32:49;21.10;99.90
49855;DHT22;35752;52.164;21.244;2022-07-06T09:35:27;21.30;99.90
49855;DHT22;35752;52.164;21.244;2022-07-06T09:38:19;21.40;99.90
49855;DHT22;35752;52.164;21.244;2022-07-06T09:40:45;21.50;99.90
49855;DHT22;35752;52.164;21.244;2022-07-06T09:43:23;21.50;99.90
49855;DHT22;35752;52.164;21.244;2022-07-06T09:45:56;21.50;99.90
49855;DHT22;35752;52.164;21.244;2022-07-06T09:48:25;21.50;99.90
49855;DHT22;35752;52.164;21.244;2022-07-06T09:50:53;21.50;99.90
49855;DHT22;35752;52.164;21.244;2022-07-06T09:53:20;21.50;99.90
49855;DHT22;35752;52.164;21.244;2022-07-06T09:55:54;21.40;99.90
49855;DHT22;35752;52.164;21.244;2022-07-06T09:58:21;21.50;99.90
49855;DHT22;35752;52.164;21.244;2022-07-06T10:00:48;21.50;99.90
49855;DHT22;35752;52.164;21.244;2022-07-06T10:03:15;21.50;99.90
49855;DHT22;35752;52.164;21.244;2022-07-06T10:05:46;21.50;99.90
49855;DHT22;35752;52.164;21.244;2022-07-06T10:08:13;21.60;99.90
49855;DHT22;35752;52.164;21.244;2022-07-06T10:10:41;21.40;99.20
49855;DHT22;35752;52.164;21.244;2022-07-06T10:13:07;21.50;99.90
49855;DHT22;35752;52.164;21.244;2022-07-06T10:15:35;21.60;98.00
49855;DHT22;35752;52.164;21.244;2022-07-06T10:18:03;21.70;98.50
49855;DHT22;35752;52.164;21.244;2022-07-06T10:20:32;21.80;99.90
49855;DHT22;35752;52.164;21.244;2022-07-06T10:22:59;22.00;99.00
49855;DHT22;35752;52.164;21.244;2022-07-06T10:25:26;22.20;96.80
49855;DHT22;35752;52.164;21.244;2022-07-06T10:27:52;22.30;99.90
49855;DHT22;35752;52.164;21.244;2022-07-06T10:30:18;22.40;96.60
49855;DHT22;35752;52.164;21.244;2022-07-06T10:32:47;22.30;95.60
49855;DHT22;35752;52.164;21.244;2022-07-06T10:35:14;22.00;97.80
49855;DHT22;35752;52.164;21.244;2022-07-06T10:37:40;21.80;94.70
49855;DHT22;35752;52.164;21.244;2022-07-06T10:40:07;21.90;96.20
49855;DHT22;35752;52.164;21.244;2022-07-06T10:43:02;22.10;99.20
49855;DHT22;35752;52.164;21.244;2022-07-06T10:48:17;22.20;85.70
49855;DHT22;35752;52.164;21.244;2022-07-06T10:50:47;22.30;82.80
49855;DHT22;35752;52.164;21.244;2022-07-06T10:53:23;22.40;93.90
49855;DHT22;35752;52.164;21.244;2022-07-06T10:55:51;22.60;87.80
49855;DHT22;35752;52.164;21.244;2022-07-06T11:01:03;22.80;88.50
49855;DHT22;35752;52.164;21.244;2022-07-06T11:03:31;22.70;79.40
49855;DHT22;35752;52.164;21.244;2022-07-06T11:05:59;22.60;81.40
49855;DHT22;35752;52.164;21.244;2022-07-06T11:16:28;22.50;83.30
49855;DHT22;35752;52.164;21.244;2022-07-06T11:19:12;22.70;83.10
49855;DHT22;35752;52.164;21.244;2022-07-06T11:21:49;23.00;89.40
49855;DHT22;35752;52.164;21.244;2022-07-06T11:24:22;23.20;83.80
49855;DHT22;35752;52.164;21.244;2022-07-06T11:26:50;23.10;81.10
49855;DHT22;35752;52.164;21.244;2022-07-06T11:29:18;23.00;79.20
49855;DHT22;35752;52.164;21.244;2022-07-06T11:31:45;22.90;78.10
49855;DHT22;35752;52.164;21.244;2022-07-06T11:34:13;22.90;82.50
49855;DHT22;35752;52.164;21.244;2022-07-06T11:36:43;22.90;75.00
49855;DHT22;35752;52.164;21.244;2022-07-06T11:39:09;23.00;76.90
49855;DHT22;35752;52.164;21.244;2022-07-06T11:41:35;23.00;73.40
49855;DHT22;35752;52.164;21.244;2022-07-06T11:44:02;22.80;77.60
49855;DHT22;35752;52.164;21.244;2022-07-06T11:46:32;22.70;77.90
49855;DHT22;35752;52.164;21.244;2022-07-06T11:49:07;22.60;78.90
49855;DHT22;35752;52.164;21.244;2022-07-06T11:51:38;22.60;87.80
49855;DHT22;35752;52.164;21.244;2022-07-06T11:54:13;22.60;87.70
49855;DHT22;35752;52.164;21.244;2022-07-06T11:59:12;23.00;80.80
49855;DHT22;35752;52.164;21.244;2022-07-06T12:01:39;23.30;79.20
49855;DHT22;35752;52.164;21.244;2022-07-06T12:04:09;23.40;76.80
49855;DHT22;35752;52.164;21.244;2022-07-06T12:06:35;23.30;76.20
49855;DHT22;35752;52.164;21.244;2022-07-06T12:09:02;23.20;75.60
49855;DHT22;35752;52.164;21.244;2022-07-06T12:11:32;23.10;74.10
49855;DHT22;35752;52.164;21.244;2022-07-06T12:14:00;23.10;76.90
49855;DHT22;35752;52.164;21.244;2022-07-06T12:16:46;22.90;77.90
49855;DHT22;35752;52.164;21.244;2022-07-06T12:19:12;22.80;78.10
49855;DHT22;35752;52.164;21.244;2022-07-06T12:21:49;22.70;78.10
49855;DHT22;35752;52.164;21.244;2022-07-06T12:24:24;22.70;79.10
49855;DHT22;35752;52.164;21.244;2022-07-06T12:26:51;23.00;80.30
49855;DHT22;35752;52.164;21.244;2022-07-06T12:29:17;23.10;74.20
49855;DHT22;35752;52.164;21.244;2022-07-06T12:31:51;23.40;76.70
49855;DHT22;35752;52.164;21.244;2022-07-06T12:34:29;23.40;73.40
49855;DHT22;35752;52.164;21.244;2022-07-06T12:37:06;23.20;71.30
49855;DHT22;35752;52.164;21.244;2022-07-06T12:39:32;23.40;71.30
49855;DHT22;35752;52.164;21.244;2022-07-06T12:42:05;23.40;73.50
49855;DHT22;35752;52.164;21.244;2022-07-06T12:44:31;23.50;78.30
49855;DHT22;35752;52.164;21.244;2022-07-06T12:47:08;23.50;73.80
49855;DHT22;35752;52.164;21.244;2022-07-06T12:49:36;23.60;74.90
49855;DHT22;35752;52.164;21.244;2022-07-06T12:52:09;23.80;77.00
49855;DHT22;35752;52.164;21.244;2022-07-06T12:54:50;23.90;75.20
49855;DHT22;35752;52.164;21.244;2022-07-06T12:57:17;23.70;71.60
49855;DHT22;35752;52.164;21.244;2022-07-06T12:59:48;23.60;69.80
49855;DHT22;35752;52.164;21.244;2022-07-06T13:04:53;23.30;69.10
49855;DHT22;35752;52.164;21.244;2022-07-06T13:07:19;23.30;66.10
49855;DHT22;35752;52.164;21.244;2022-07-06T13:09:45;23.30;67.90
49855;DHT22;35752;52.164;21.244;2022-07-06T13:12:11;23.40;67.00
49855;DHT22;35752;52.164;21.244;2022-07-06T13:14:37;23.50;71.00
49855;DHT22;35752;52.164;21.244;2022-07-06T13:17:02;23.60;67.20
49855;DHT22;35752;52.164;21.244;2022-07-06T13:19:28;23.70;68.70
49855;DHT22;35752;52.164;21.244;2022-07-06T13:21:54;23.80;67.80
49855;DHT22;35752;52.164;21.244;2022-07-06T13:24:20;23.90;69.60
49855;DHT22;35752;52.164;21.244;2022-07-06T13:26:46;23.90;69.50
49855;DHT22;35752;52.164;21.244;2022-07-06T13:29:12;24.00;68.50
49855;DHT22;35752;52.164;21.244;2022-07-06T13:31:39;24.00;69.60
49855;DHT22;35752;52.164;21.244;2022-07-06T13:34:06;24.00;68.20
49855;DHT22;35752;52.164;21.244;2022-07-06T13:36:32;24.00;70.50
49855;DHT22;35752;52.164;21.244;2022-07-06T13:38:58;24.00;70.60
49855;DHT22;35752;52.164;21.244;2022-07-06T13:41:24;24.00;70.40
49855;DHT22;35752;52.164;21.244;2022-07-06T13:43:49;24.10;73.10
49855;DHT22;35752;52.164;21.244;2022-07-06T13:46:15;23.90;70.40
49855;DHT22;35752;52.164;21.244;2022-07-06T13:48:42;23.80;70.90
49855;DHT22;35752;52.164;21.244;2022-07-06T13:51:08;23.80;69.20
49855;DHT22;35752;52.164;21.244;2022-07-06T13:53:34;23.90;71.20
49855;DHT22;35752;52.164;21.244;2022-07-06T13:56:00;23.90;70.90
49855;DHT22;35752;52.164;21.244;2022-07-06T13:58:26;23.80;69.00
49855;DHT22;35752;52.164;21.244;2022-07-06T14:00:51;23.70;67.30
49855;DHT22;35752;52.164;21.244;2022-07-06T14:03:17;23.80;66.90
49855;DHT22;35752;52.164;21.244;2022-07-06T14:05:43;23.90;68.00
49855;DHT22;35752;52.164;21.244;2022-07-06T14:08:09;23.70;66.80
49855;DHT22;35752;52.164;21.244;2022-07-06T14:10:34;23.60;69.20
49855;DHT22;35752;52.164;21.244;2022-07-06T14:13:00;23.70;67.40
49855;DHT22;35752;52.164;21.244;2022-07-06T14:15:26;23.60;67.70
49855;DHT22;35752;52.164;21.244;2022-07-06T14:17:52;23.60;69.30
49855;DHT22;35752;52.164;21.244;2022-07-06T14:20:17;23.70;67.30
49855;DHT22;35752;52.164;21.244;2022-07-06T14:22:44;23.60;66.60
49855;DHT22;35752;52.164;21.244;2022-07-06T14:25:10;23.50;66.10
49855;DHT22;35752;52.164;21.244;2022-07-06T14:27:36;23.50;69.30
49855;DHT22;35752;52.164;21.244;2022-07-06T14:30:03;23.50;66.90
49855;DHT22;35752;52.164;21.244;2022-07-06T14:32:29;23.50;67.50
49855;DHT22;35752;52.164;21.244;2022-07-06T14:34:54;23.40;68.50
49855;DHT22;35752;52.164;21.244;2022-07-06T14:37:20;23.30;69.50
49855;DHT22;35752;52.164;21.244;2022-07-06T14:39:46;23.20;70.10
49855;DHT22;35752;52.164;21.244;2022-07-06T14:42:13;23.10;70.90
49855;DHT22;35752;52.164;21.244;2022-07-06T14:44:38;23.00;72.00
49855;DHT22;35752;52.164;21.244;2022-07-06T14:47:06;23.00;74.20
49855;DHT22;35752;52.164;21.244;2022-07-06T14:49:32;22.80;72.10
49855;DHT22;35752;52.164;21.244;2022-07-06T14:51:58;22.80;74.40
49855;DHT22;35752;52.164;21.244;2022-07-06T14:54:24;22.80;75.60
49855;DHT22;35752;52.164;21.244;2022-07-06T14:56:50;22.70;74.90
49855;DHT22;35752;52.164;21.244;2022-07-06T14:59:16;22.70;75.90
49855;DHT22;35752;52.164;21.244;2022-07-06T15:01:42;22.50;74.70
49855;DHT22;35752;52.164;21.244;2022-07-06T15:04:09;22.40;74.40
49855;DHT22;35752;52.164;21.244;2022-07-06T15:06:35;22.30;76.10
49855;DHT22;35752;52.164;21.244;2022-07-06T15:09:01;22.30;75.20
49855;DHT22;35752;52.164;21.244;2022-07-06T15:11:30;22.30;75.30
49855;DHT22;35752;52.164;21.244;2022-07-06T15:13:56;22.20;76.10
49855;DHT22;35752;52.164;21.244;2022-07-06T15:16:21;22.10;76.00
49855;DHT22;35752;52.164;21.244;2022-07-06T15:18:47;22.10;78.40
49855;DHT22;35752;52.164;21.244;2022-07-06T15:21:13;22.10;78.10
49855;DHT22;35752;52.164;21.244;2022-07-06T15:23:39;22.20;77.50
49855;DHT22;35752;52.164;21.244;2022-07-06T15:26:05;22.10;77.30
49855;DHT22;35752;52.164;21.244;2022-07-06T15:28:30;22.20;78.60
49855;DHT22;35752;52.164;21.244;2022-07-06T15:30:56;22.10;73.10
49855;DHT22;35752;52.164;21.244;2022-07-06T15:33:22;22.20;71.40